createdAt,value
2022-08-25T00:11:26.078Z,25.20
2022-08-25T00:26:28.568Z,25.20
2022-08-25T00:41:30.087Z,25.10
2022-08-25T00:56:31.594Z,25.00
2022-08-25T01:11:33.084Z,25.00
2022-08-25T01:26:34.570Z,24.90
2022-08-25T01:41:36.055Z,24.90
2022-08-25T01:56:37.635Z,24.80
2022-08-25T02:11:39.125Z,24.90
2022-08-25T02:26:40.686Z,24.80
2022-08-25T02:41:42.186Z,24.70
2022-08-25T02:56:44.226Z,24.70
2022-08-25T03:11:46.223Z,24.70
2022-08-25T03:26:47.720Z,24.60
2022-08-25T03:41:49.202Z,24.60
2022-08-25T03:56:50.686Z,24.50
2022-08-25T04:11:53.522Z,24.50
2022-08-25T04:26:55.133Z,24.50
2022-08-25T04:41:56.621Z,24.50
2022-08-25T04:56:58.970Z,24.50
2022-08-25T05:12:00.537Z,24.40
2022-08-25T05:27:02.044Z,24.40
2022-08-25T05:42:03.541Z,24.50
2022-08-25T05:57:05.035Z,24.50
2022-08-25T06:12:06.682Z,24.60
2022-08-25T06:27:09.012Z,24.70
2022-08-25T06:42:10.493Z,24.80
2022-08-25T06:57:11.983Z,24.80
2022-08-25T07:12:13.751Z,24.90
2022-08-25T07:27:15.252Z,25.00
2022-08-25T07:42:16.743Z,25.10
2022-08-25T07:57:20.023Z,25.10
2022-08-25T08:12:21.506Z,25.20
2022-08-25T08:27:24.210Z,25.40
2022-08-25T08:42:25.742Z,25.60
2022-08-25T08:57:27.225Z,25.70
2022-08-25T09:12:29.408Z,25.90
2022-08-25T09:27:31.693Z,26.00
2022-08-25T09:42:33.177Z,26.20
2022-08-25T09:57:34.658Z,26.30
2022-08-25T10:12:36.154Z,26.50
2022-08-25T10:27:37.646Z,26.60
2022-08-25T10:42:39.218Z,26.90
2022-08-25T10:57:44.257Z,27.10
2022-08-25T11:12:45.753Z,27.30
2022-08-25T11:27:47.240Z,29.20
2022-08-25T11:42:48.734Z,31.20
2022-08-25T11:57:53.237Z,32.50
2022-08-25T12:12:55.199Z,32.70
2022-08-25T12:27:56.736Z,32.50
2022-08-25T12:42:58.777Z,32.10
2022-08-25T12:58:01.014Z,31.70
2022-08-25T13:13:02.501Z,31.30
2022-08-25T13:28:04.007Z,30.90
2022-08-25T13:43:05.493Z,30.60
2022-08-25T13:58:07.324Z,30.30
2022-08-25T14:13:15.849Z,30.10
2022-08-25T14:28:20.612Z,29.80
2022-08-25T14:43:23.865Z,29.50
2022-08-25T14:58:26.655Z,29.30
2022-08-25T15:13:28.381Z,29.20
2022-08-25T15:28:29.930Z,29.10
2022-08-25T15:43:32.274Z,28.90
2022-08-25T15:58:33.757Z,28.80
2022-08-25T16:13:35.453Z,28.60
2022-08-25T16:28:36.994Z,28.50
2022-08-25T16:43:38.482Z,28.40
2022-08-25T16:58:39.969Z,28.30
2022-08-25T17:13:44.351Z,28.20
2022-08-25T17:28:46.241Z,28.20
2022-08-25T17:43:47.750Z,28.10
2022-08-25T17:58:49.631Z,27.90
2022-08-25T18:13:51.179Z,27.80
2022-08-25T18:28:52.663Z,27.60
2022-08-25T18:43:54.136Z,27.40
2022-08-25T18:58:55.628Z,27.30
2022-08-25T19:13:57.113Z,27.10
2022-08-25T19:28:58.723Z,27.00
2022-08-25T19:44:00.874Z,26.90
2022-08-25T19:59:02.624Z,26.80
2022-08-25T20:14:04.905Z,26.60
2022-08-25T20:29:06.390Z,26.60
2022-08-25T20:44:08.977Z,26.40
2022-08-25T20:59:11.595Z,26.40
2022-08-25T21:14:13.276Z,26.30
2022-08-25T21:29:15.027Z,26.20
2022-08-25T21:44:16.935Z,26.10
2022-08-25T21:59:19.295Z,26.00
2022-08-25T22:14:20.781Z,26.00
2022-08-25T22:29:24.752Z,25.90
2022-08-25T22:44:27.165Z,25.80
2022-08-25T22:59:28.692Z,25.80
2022-08-25T23:14:30.277Z,25.80
2022-08-25T23:29:31.757Z,25.70
2022-08-25T23:44:33.243Z,25.60
2022-08-25T23:59:34.728Z,25.50
